Time;durP1;ratioP1;P1;durP2;ratioP2;P2;SDS_P1;SDS_P2;PMS_P1;PMS_P2;Temp;Humidity;BMP_temperature;BMP_pressure;BME280_temperature;BME280_humidity;BME280_pressure;Samples;Min_cycle;Max_cycle;Signal;HPM_P1;HPM_P2
2021/04/26 00:01:26;;;;;;;4.10;2.90;;;10.10;51.00;;;;;;10456714;28;20228;-78
2021/04/26 00:06:29;;;;;;;4.33;2.70;;;10.10;50.70;;;;;;10438436;28;20229;-77
2021/04/26 00:11:31;;;;;;;2.90;2.60;;;10.10;51.50;;;;;;10445509;28;20201;-76
2021/04/26 00:16:32;;;;;;;2.63;2.43;;;10.10;50.90;;;;;;10499402;28;20615;-78
2021/04/26 00:21:35;;;;;;;3.30;2.97;;;10.10;51.50;;;;;;10481010;28;20228;-80
2021/04/26 00:26:37;;;;;;;3.00;2.80;;;10.20;51.10;;;;;;10465799;28;20239;-77
2021/04/26 00:31:39;;;;;;;4.53;3.60;;;10.20;50.70;;;;;;10505232;28;20224;-78
2021/04/26 00:36:41;;;;;;;4.97;2.90;;;10.30;51.30;;;;;;10483534;28;20329;-82
2021/04/26 00:41:43;;;;;;;8.13;3.30;;;10.40;51.10;;;;;;10504810;28;20663;-79
2021/04/26 00:46:45;;;;;;;4.70;2.70;;;10.30;50.80;;;;;;10486569;28;20197;-80
2021/04/26 00:51:49;;;;;;;3.67;2.80;;;10.30;51.10;;;;;;10503996;28;20204;-78
2021/04/26 00:56:50;;;;;;;3.07;2.80;;;10.30;51.80;;;;;;10487185;28;20201;-79
2021/04/26 01:01:52;;;;;;;3.77;2.90;;;10.20;51.90;;;;;;10482109;28;20258;-78
2021/04/26 01:06:55;;;;;;;6.80;3.20;;;10.10;52.30;;;;;;10479271;28;20665;-80
2021/04/26 01:12:08;;;;;;;4.17;3.77;;;10.00;52.40;;;;;;10472935;28;20209;-82
2021/04/26 01:17:16;;;;;;;4.13;3.73;;;9.90;53.90;;;;;;10451792;28;20232;-79
2021/04/26 01:22:43;;;;;;;3.60;3.30;;;9.90;54.00;;;;;;10461419;28;20221;-79
2021/04/26 01:28:16;;;;;;;4.43;4.00;;;9.90;54.20;;;;;;10459718;28;20219;-78
2021/04/26 01:33:20;;;;;;;4.23;3.93;;;9.80;54.40;;;;;;10446741;28;20224;-79
2021/04/26 01:38:34;;;;;;;4.97;4.33;;;9.80;55.80;;;;;;10481988;28;20197;-78
2021/04/26 01:43:36;;;;;;;4.33;3.87;;;9.90;54.20;;;;;;10503106;28;20251;-79
2021/04/26 01:48:42;;;;;;;5.93;4.83;;;9.90;54.70;;;;;;10482980;28;20677;-79
2021/04/26 01:53:46;;;;;;;4.93;4.03;;;10.00;54.00;;;;;;10501360;28;20220;-79
2021/04/26 01:58:50;;;;;;;4.53;3.90;;;9.90;54.60;;;;;;10502109;28;20204;-79
2021/04/26 02:03:57;;;;;;;4.87;4.37;;;9.90;55.20;;;;;;10467928;28;20240;-79
2021/04/26 02:09:14;;;;;;;6.67;4.60;;;9.80;55.10;;;;;;10483776;28;20292;-79
2021/04/26 02:14:18;;;;;;;4.33;3.93;;;9.70;55.80;;;;;;10500378;28;20212;-80
2021/04/26 02:19:22;;;;;;;6.00;4.70;;;9.60;55.80;;;;;;10500613;28;20205;-81
2021/04/26 02:24:24;;;;;;;5.10;4.60;;;9.50;56.00;;;;;;10466529;28;20236;-79
2021/04/26 02:29:26;;;;;;;4.80;4.37;;;9.40;56.40;;;;;;10482528;28;20205;-79
2021/04/26 02:34:34;;;;;;;5.23;4.70;;;9.30;56.40;;;;;;10482116;28;20236;-81
2021/04/26 02:39:38;;;;;;;5.47;4.97;;;9.20;56.60;;;;;;10482799;28;20220;-80
2021/04/26 02:44:43;;;;;;;5.40;4.90;;;9.00;56.90;;;;;;10482240;28;20252;-80
2021/04/26 02:49:48;;;;;;;4.87;4.43;;;8.90;57.10;;;;;;10482026;28;20209;-80
2021/04/26 02:54:51;;;;;;;5.97;5.40;;;8.80;57.60;;;;;;10481477;28;20248;-80
2021/04/26 02:59:57;;;;;;;5.20;4.70;;;8.70;58.00;;;;;;10482420;28;20553;-81
2021/04/26 03:05:01;;;;;;;6.83;4.83;;;8.60;58.20;;;;;;10499973;28;20220;-80
2021/04/26 03:10:06;;;;;;;5.27;4.67;;;8.50;58.40;;;;;;10476625;28;20240;-80
2021/04/26 03:15:11;;;;;;;10.00;5.43;;;8.50;58.60;;;;;;10439613;28;20248;-80
2021/04/26 03:20:16;;;;;;;5.80;5.30;;;8.40;58.70;;;;;;10439916;28;20209;-81
2021/04/26 03:25:34;;;;;;;6.60;5.53;;;8.40;58.80;;;;;;10440847;28;20225;-79
2021/04/26 03:30:37;;;;;;;6.27;5.63;;;8.30;59.10;;;;;;10437074;28;20284;-79
2021/04/26 03:35:54;;;;;;;7.23;5.90;;;8.20;59.00;;;;;;10472863;23;20232;-78
2021/04/26 03:40:57;;;;;;;6.07;5.37;;;8.20;59.00;;;;;;10495634;28;20669;-78
2021/04/26 03:46:04;;;;;;;8.23;5.67;;;8.10;59.70;;;;;;10495649;28;20605;-78
2021/04/26 03:51:39;;;;;;;5.53;5.00;;;8.10;59.30;;;;;;10467444;28;20762;-78
2021/04/26 03:56:59;;;;;;;6.23;5.27;;;8.10;59.00;;;;;;10491422;28;20227;-78
2021/04/26 04:02:01;;;;;;;7.70;6.90;;;8.00;58.80;;;;;;10494081;28;20235;-78
2021/04/26 04:07:12;;;;;;;7.00;6.00;;;8.00;58.50;;;;;;10495718;28;20192;-78
2021/04/26 04:12:37;;;;;;;5.40;4.83;;;8.00;58.70;;;;;;10495172;28;20700;-78
2021/04/26 04:17:45;;;;;;;6.17;5.67;;;7.90;58.60;;;;;;10478290;28;20619;-78
2021/04/26 04:22:48;;;;;;;6.90;6.20;;;7.90;58.80;;;;;;10477973;28;20789;-78
2021/04/26 04:27:51;;;;;;;6.50;5.90;;;7.80;58.90;;;;;;10494337;28;20676;-78
2021/04/26 04:32:53;;;;;;;6.43;5.20;;;7.70;59.10;;;;;;10492791;28;20327;-78
2021/04/26 04:38:14;;;;;;;4.93;4.50;;;7.60;59.10;;;;;;10491756;28;20205;-78
2021/04/26 04:43:34;;;;;;;6.00;5.40;;;7.60;59.50;;;;;;10494998;28;20572;-78
2021/04/26 04:48:36;;;;;;;6.20;5.60;;;7.60;59.30;;;;;;10493676;28;20201;-78
2021/04/26 04:53:41;;;;;;;5.60;4.83;;;7.60;59.80;;;;;;10486892;28;20247;-78
2021/04/26 04:58:43;;;;;;;5.40;4.80;;;7.70;58.50;;;;;;10494119;28;20614;-78
2021/04/26 05:03:45;;;;;;;6.67;5.20;;;7.70;58.00;;;;;;10476474;28;20270;-78
2021/04/26 05:09:20;;;;;;;6.00;5.10;;;7.70;57.90;;;;;;10447259;28;20213;-77
2021/04/26 05:14:41;;;;;;;6.43;5.83;;;7.80;57.50;;;;;;10496731;28;20224;-77
2021/04/26 05:19:43;;;;;;;6.30;5.70;;;7.90;57.00;;;;;;10498849;28;20731;-77
2021/04/26 05:24:45;;;;;;;7.83;5.57;;;7.90;57.50;;;;;;10498401;28;20717;-77
2021/04/26 05:29:47;;;;;;;6.47;5.87;;;7.90;57.80;;;;;;10475744;28;20262;-77
2021/04/26 05:34:49;;;;;;;5.93;5.43;;;8.00;57.80;;;;;;10481901;28;20243;-77
2021/04/26 05:39:52;;;;;;;10.50;6.23;;;8.00;57.80;;;;;;10499384;28;20213;-77
2021/04/26 05:44:54;;;;;;;6.33;5.63;;;8.10;57.50;;;;;;10492089;28;20235;-77
2021/04/26 05:50:16;;;;;;;6.53;5.93;;;8.20;57.60;;;;;;10497820;28;20215;-77
2021/04/26 05:55:19;;;;;;;6.37;5.43;;;8.30;57.40;;;;;;10497683;28;20271;-77
2021/04/26 06:00:21;;;;;;;5.77;5.20;;;8.40;56.10;;;;;;10498185;28;20196;-77
2021/04/26 06:05:23;;;;;;;7.87;5.63;;;8.50;56.20;;;;;;10498805;28;20225;-77
2021/04/26 06:10:25;;;;;;;6.53;5.43;;;8.60;56.20;;;;;;10498118;28;20715;-77
2021/04/26 06:15:27;;;;;;;6.43;5.83;;;8.70;55.90;;;;;;10497417;28;20358;-77
2021/04/26 06:20:29;;;;;;;5.83;5.23;;;8.80;55.70;;;;;;10498326;28;20676;-77
2021/04/26 06:25:32;;;;;;;5.50;5.10;;;8.90;54.10;;;;;;10478921;28;20795;-76
2021/04/26 06:30:34;;;;;;;6.33;5.73;;;9.00;53.40;;;;;;10498076;28;20236;-77
2021/04/26 06:35:36;;;;;;;6.80;5.60;;;9.10;53.70;;;;;;10497489;28;20303;-76
2021/04/26 06:40:39;;;;;;;6.93;5.53;;;9.10;54.00;;;;;;10514367;28;20243;-77
2021/04/26 06:45:42;;;;;;;5.63;5.13;;;9.20;54.40;;;;;;10539670;28;20223;-77
2021/04/26 06:50:44;;;;;;;6.90;5.77;;;9.30;54.00;;;;;;10521528;28;20200;-77
2021/04/26 06:55:47;;;;;;;6.47;5.90;;;9.40;53.70;;;;;;10504062;28;20926;-77
2021/04/26 07:00:49;;;;;;;8.63;5.97;;;9.40;53.70;;;;;;10539067;28;20247;-77
2021/04/26 07:05:51;;;;;;;6.57;5.97;;;9.50;53.30;;;;;;10520007;28;20223;-77
2021/04/26 07:10:53;;;;;;;6.30;5.70;;;9.60;53.70;;;;;;10538366;28;20581;-77
2021/04/26 07:15:55;;;;;;;6.33;5.73;;;9.70;53.70;;;;;;10537587;28;20212;-76
2021/04/26 07:20:57;;;;;;;6.10;5.50;;;9.80;53.60;;;;;;10537720;28;20211;-77
2021/04/26 07:26:00;;;;;;;6.90;6.30;;;10.00;52.60;;;;;;10537146;28;20565;-77
2021/04/26 07:31:02;;;;;;;5.27;4.93;;;10.20;50.70;;;;;;10537661;28;20196;-77
2021/04/26 07:36:05;;;;;;;7.13;5.43;;;10.60;51.80;;;;;;10536338;28;20894;-77
2021/04/26 07:41:09;;;;;;;8.80;6.00;;;11.10;50.50;;;;;;10519457;28;20220;-77
2021/04/26 07:46:10;;;;;;;6.17;5.57;;;11.50;49.50;;;;;;10538105;28;20220;-77
2021/04/26 07:51:12;;;;;;;6.00;5.30;;;11.90;48.90;;;;;;10520548;28;20192;-77
2021/04/26 07:56:15;;;;;;;6.77;5.47;;;12.30;48.00;;;;;;10537968;28;20372;-77
2021/04/26 08:01:16;;;;;;;6.40;5.80;;;12.70;48.70;;;;;;10538095;28;20231;-77
2021/04/26 08:06:18;;;;;;;6.93;5.67;;;13.10;47.40;;;;;;10503121;28;20250;-77
2021/04/26 08:11:20;;;;;;;7.33;5.90;;;13.40;46.60;;;;;;10503012;28;20199;-77
2021/04/26 08:16:22;;;;;;;6.43;5.83;;;13.60;46.70;;;;;;10538213;28;20223;-77
2021/04/26 08:21:24;;;;;;;5.97;5.47;;;13.90;46.80;;;;;;10539123;28;20242;-77
2021/04/26 08:26:27;;;;;;;8.73;5.63;;;14.20;46.60;;;;;;10539572;28;20227;-77
2021/04/26 08:31:28;;;;;;;5.93;5.30;;;14.60;46.00;;;;;;10520853;28;20200;-78
2021/04/26 08:36:30;;;;;;;7.17;6.50;;;14.80;45.80;;;;;;10519972;28;20220;-77
2021/04/26 08:41:33;;;;;;;6.90;6.10;;;15.10;45.10;;;;;;10520666;28;20438;-77
2021/04/26 08:46:36;;;;;;;6.13;5.37;;;15.50;44.80;;;;;;10539186;28;20212;-77
2021/04/26 08:51:39;;;;;;;6.27;5.10;;;15.90;44.20;;;;;;10547012;28;20192;-77
2021/04/26 08:56:42;;;;;;;5.77;5.37;;;16.10;44.20;;;;;;10546724;28;20215;-77
2021/04/26 09:01:49;;;;;;;5.13;4.73;;;16.30;42.90;;;;;;10545135;28;20224;-77
2021/04/26 09:06:58;;;;;;;6.03;5.03;;;16.40;42.30;;;;;;10545991;28;20216;-78
2021/04/26 09:12:01;;;;;;;7.93;5.37;;;16.50;43.30;;;;;;10544566;28;20200;-77
2021/04/26 09:17:25;;;;;;;6.03;4.80;;;16.50;42.20;;;;;;10527225;28;20224;-77
2021/04/26 09:22:45;;;;;;;5.90;5.30;;;16.60;43.20;;;;;;10546369;28;20235;-77
2021/04/26 09:28:02;;;;;;;6.00;5.40;;;16.90;43.20;;;;;;10547136;28;20192;-78
2021/04/26 09:39:15;;;;;;;5.97;5.47;;;17.50;42.70;;;;;;10486119;28;20253;-83
2021/04/26 09:44:18;;;;;;;6.83;5.37;;;17.90;42.00;;;;;;10466425;28;20236;-84
2021/04/26 09:49:22;;;;;;;8.07;5.90;;;18.20;42.00;;;;;;10502842;28;20263;-83
2021/04/26 09:54:37;;;;;;;6.67;5.97;;;18.50;41.50;;;;;;10483013;28;20224;-84
2021/04/26 09:59:40;;;;;;;5.83;5.33;;;18.70;40.20;;;;;;10479147;28;20204;-82
2021/04/26 10:04:42;;;;;;;7.30;5.73;;;18.90;41.10;;;;;;10504192;28;20232;-82
2021/04/26 10:09:47;;;;;;;6.00;5.60;;;19.30;41.00;;;;;;10486140;28;20224;-83
2021/04/26 10:14:50;;;;;;;6.47;5.73;;;19.30;40.70;;;;;;10481342;28;20307;-86
2021/04/26 10:19:52;;;;;;;9.40;6.40;;;19.10;41.10;;;;;;10463846;28;20223;-85
2021/04/26 10:24:56;;;;;;;7.03;6.43;;;18.40;40.70;;;;;;10480286;28;20236;-88
2021/04/26 10:30:05;;;;;;;6.87;6.27;;;17.70;39.40;;;;;;10484284;28;20200;-87
2021/04/26 10:35:12;;;;;;;6.13;5.53;;;17.10;41.10;;;;;;10467410;28;20248;-88
2021/04/26 10:40:16;;;;;;;6.40;5.70;;;16.60;41.60;;;;;;10481017;28;20214;-86
2021/04/26 10:45:27;;;;;;;8.23;7.07;;;16.30;42.90;;;;;;10459227;28;20813;-86
2021/04/26 10:50:34;;;;;;;6.00;5.60;;;16.20;43.60;;;;;;10479373;28;20518;-84
2021/04/26 10:55:45;;;;;;;6.50;5.90;;;16.00;43.70;;;;;;10445182;28;20228;-87
2021/04/26 11:00:49;;;;;;;6.23;5.73;;;15.90;44.00;;;;;;10446948;28;20213;-84
2021/04/26 11:05:53;;;;;;;7.53;5.90;;;15.80;44.50;;;;;;10467391;28;20235;-84
2021/04/26 11:11:05;;;;;;;6.90;6.30;;;15.70;44.70;;;;;;10470357;28;20750;-86
2021/04/26 11:16:10;;;;;;;7.10;6.40;;;15.70;45.10;;;;;;10481790;28;20227;-82
2021/04/26 11:21:33;;;;;;;7.10;6.37;;;15.60;44.60;;;;;;10458993;28;20691;-85
2021/04/26 11:26:35;;;;;;;7.47;6.60;;;15.50;44.80;;;;;;10459192;28;20256;-84
2021/04/26 11:32:03;;;;;;;6.93;6.33;;;15.40;44.00;;;;;;10451560;28;20205;-83
2021/04/26 11:37:11;;;;;;;7.00;6.20;;;15.30;44.80;;;;;;10428928;28;20241;-84
2021/04/26 11:42:21;;;;;;;5.93;5.40;;;15.40;45.30;;;;;;10404339;28;20309;-85
2021/04/26 11:47:26;;;;;;;4.77;4.33;;;15.40;45.10;;;;;;10413712;28;20224;-85
2021/04/26 11:52:30;;;;;;;7.43;6.63;;;15.40;45.10;;;;;;10423547;28;20214;-85
2021/04/26 11:57:44;;;;;;;7.03;6.53;;;15.50;44.90;;;;;;10447114;28;20300;-84
2021/04/26 12:02:49;;;;;;;6.10;5.60;;;15.50;43.10;;;;;;10440011;28;20668;-84
2021/04/26 12:07:51;;;;;;;6.83;6.27;;;15.40;44.40;;;;;;10461430;28;20201;-85
2021/04/26 12:12:55;;;;;;;5.63;4.90;;;15.30;44.20;;;;;;10430167;28;20241;-83
2021/04/26 12:17:59;;;;;;;6.23;5.63;;;15.30;44.00;;;;;;10445912;28;20236;-83
2021/04/26 12:23:04;;;;;;;6.30;5.70;;;15.30;44.60;;;;;;10467688;28;20220;-81
2021/04/26 12:28:07;;;;;;;6.03;5.43;;;15.30;42.90;;;;;;10453710;28;20212;-80
2021/04/26 12:33:21;;;;;;;6.33;5.80;;;15.40;43.90;;;;;;10436249;28;20303;-84
2021/04/26 12:38:27;;;;;;;5.30;4.80;;;15.40;43.20;;;;;;10494205;28;20220;-83
2021/04/26 12:43:32;;;;;;;5.60;5.20;;;15.40;43.10;;;;;;10495386;28;20233;-83
2021/04/26 12:48:37;;;;;;;6.13;5.53;;;15.50;44.20;;;;;;10476348;28;20211;-85
2021/04/26 12:53:43;;;;;;;5.63;4.70;;;15.50;42.80;;;;;;10492931;28;20221;-86
2021/04/26 12:58:51;;;;;;;4.70;4.30;;;15.50;43.20;;;;;;10477575;28;20209;-87
2021/04/26 13:03:55;;;;;;;7.23;5.50;;;15.60;40.00;;;;;;10490428;28;20274;-84
2021/04/26 13:08:59;;;;;;;5.03;4.50;;;15.60;41.40;;;;;;10473658;28;20216;-85
2021/04/26 13:14:03;;;;;;;6.30;5.80;;;15.60;42.50;;;;;;10461221;28;20240;-85
2021/04/26 13:19:08;;;;;;;6.30;5.80;;;15.70;42.20;;;;;;10473099;28;20659;-86
2021/04/26 13:24:12;;;;;;;7.03;5.13;;;15.70;42.40;;;;;;10462493;28;20716;-87
2021/04/26 13:29:16;;;;;;;8.00;4.77;;;15.80;42.90;;;;;;10499910;28;20576;-87
2021/04/26 13:34:19;;;;;;;6.47;5.43;;;15.90;40.60;;;;;;10461253;28;20279;-85
2021/04/26 13:39:22;;;;;;;5.50;5.00;;;15.90;41.90;;;;;;10472762;28;20205;-86
2021/04/26 13:44:24;;;;;;;5.90;4.90;;;16.00;37.50;;;;;;10461305;28;20221;-87
2021/04/26 13:49:27;;;;;;;7.93;4.47;;;16.00;39.00;;;;;;10458372;28;20197;-84
2021/04/26 13:54:28;;;;;;;7.60;4.90;;;16.00;38.80;;;;;;10479554;28;20209;-86
2021/04/26 13:59:30;;;;;;;5.17;4.60;;;16.00;38.60;;;;;;10476554;28;20197;-84
2021/04/26 14:04:34;;;;;;;5.40;4.70;;;16.10;37.40;;;;;;10471437;28;20292;-84
2021/04/26 14:09:36;;;;;;;6.23;5.40;;;16.10;36.10;;;;;;10489301;28;20569;-85
2021/04/26 14:14:38;;;;;;;4.40;4.10;;;16.20;37.80;;;;;;10470938;28;20212;-84
2021/04/26 14:19:41;;;;;;;4.37;4.07;;;16.10;39.00;;;;;;10495146;28;20200;-82
2021/04/26 14:24:43;;;;;;;5.43;4.93;;;16.20;39.80;;;;;;10467623;28;20235;-85
2021/04/26 14:29:45;;;;;;;5.00;4.60;;;16.20;39.90;;;;;;10470109;28;20219;-84
2021/04/26 14:34:48;;;;;;;4.43;4.10;;;16.30;38.50;;;;;;10472411;28;20238;-83
2021/04/26 14:39:50;;;;;;;4.70;4.33;;;16.50;36.60;;;;;;10457564;28;20226;-85
2021/04/26 14:44:52;;;;;;;4.13;3.83;;;16.60;34.40;;;;;;10493101;28;20880;-85
2021/04/26 14:49:55;;;;;;;4.53;4.00;;;16.60;36.80;;;;;;10464788;28;20851;-87
2021/04/26 14:54:56;;;;;;;7.03;4.40;;;16.50;38.80;;;;;;10469669;28;20665;-85
2021/04/26 14:59:58;;;;;;;4.80;4.37;;;16.50;37.80;;;;;;10485311;28;21028;-87
2021/04/26 15:05:02;;;;;;;6.00;4.87;;;16.50;38.00;;;;;;10470111;28;20622;-86
2021/04/26 15:10:05;;;;;;;4.07;3.60;;;16.40;37.70;;;;;;10488446;28;20274;-86
2021/04/26 15:15:10;;;;;;;3.90;3.70;;;16.40;36.90;;;;;;10486813;28;20282;-83
2021/04/26 15:20:13;;;;;;;4.63;4.20;;;16.50;35.70;;;;;;10470408;28;20226;-87
2021/04/26 15:25:19;;;;;;;3.90;3.60;;;16.50;35.10;;;;;;10487797;28;20233;-86
2021/04/26 15:30:21;;;;;;;4.43;4.00;;;16.50;35.10;;;;;;10488123;28;20201;-87
2021/04/26 15:35:24;;;;;;;4.90;4.43;;;16.60;36.70;;;;;;10501190;22;20228;-77
2021/04/26 15:40:26;;;;;;;7.40;4.60;;;16.80;37.70;;;;;;10518024;28;20211;-77
2021/04/26 15:45:28;;;;;;;6.27;5.70;;;16.80;39.80;;;;;;10539581;28;20242;-78
2021/04/26 15:50:32;;;;;;;5.80;5.33;;;16.70;39.30;;;;;;10577533;28;20201;-77
2021/04/26 15:55:36;;;;;;;6.93;4.90;;;16.70;39.50;;;;;;10539793;28;20246;-76
2021/04/26 16:00:40;;;;;;;4.93;4.40;;;16.60;40.00;;;;;;10558245;28;20205;-77
2021/04/26 16:05:43;;;;;;;5.20;4.70;;;16.60;39.70;;;;;;10576897;28;20698;-77
2021/04/26 16:10:47;;;;;;;6.00;4.77;;;16.60;39.50;;;;;;10573096;28;20196;-77
2021/04/26 16:15:51;;;;;;;8.50;5.23;;;16.60;39.80;;;;;;10549551;28;20219;-77
2021/04/26 16:20:59;;;;;;;5.40;4.40;;;16.60;40.20;;;;;;10577217;28;20199;-78
2021/04/26 16:26:01;;;;;;;7.10;5.20;;;16.60;39.90;;;;;;10576606;28;20231;-77
2021/04/26 16:31:02;;;;;;;5.23;4.73;;;16.60;39.70;;;;;;10576146;28;20216;-78
2021/04/26 16:36:07;;;;;;;5.40;4.70;;;16.50;39.40;;;;;;10576011;28;20376;-78
2021/04/26 16:41:09;;;;;;;7.30;5.93;;;16.50;39.70;;;;;;10576310;28;20240;-77
2021/04/26 16:46:10;;;;;;;6.10;5.60;;;16.50;39.50;;;;;;10576090;28;20702;-78
2021/04/26 16:51:13;;;;;;;5.00;4.60;;;16.40;39.30;;;;;;10576823;28;20614;-77
2021/04/26 16:56:15;;;;;;;5.40;4.90;;;16.40;39.60;;;;;;10576369;28;20222;-78
2021/04/26 17:01:29;;;;;;;5.20;4.80;;;16.30;40.30;;;;;;10541117;28;20252;-79
2021/04/26 17:06:31;;;;;;;6.60;5.10;;;16.30;39.70;;;;;;10566579;28;20306;-79
2021/04/26 17:11:33;;;;;;;5.67;5.23;;;16.20;39.70;;;;;;10572360;28;20636;-79
2021/04/26 17:16:35;;;;;;;8.00;5.50;;;16.10;38.80;;;;;;10571478;28;20219;-79
2021/04/26 17:21:37;;;;;;;5.80;5.30;;;16.10;38.80;;;;;;10592392;28;20271;-78
2021/04/26 17:26:40;;;;;;;5.60;5.10;;;16.00;38.90;;;;;;10588108;28;20226;-78
2021/04/26 17:31:41;;;;;;;5.17;4.63;;;16.00;38.40;;;;;;10590171;28;20662;-78
2021/04/26 17:36:47;;;;;;;5.27;4.87;;;15.90;38.90;;;;;;10577657;28;20706;-78
2021/04/26 17:41:49;;;;;;;6.80;5.23;;;15.80;39.60;;;;;;10588038;28;20302;-78
2021/04/26 17:46:53;;;;;;;5.00;4.60;;;15.80;38.90;;;;;;10581784;28;20274;-78
2021/04/26 17:51:56;;;;;;;5.83;5.20;;;15.60;39.50;;;;;;10576621;28;20191;-78
2021/04/26 17:56:57;;;;;;;6.07;5.43;;;15.60;38.30;;;;;;10570805;28;20279;-78
2021/04/26 18:02:00;;;;;;;4.93;4.43;;;15.60;38.50;;;;;;10551084;28;20250;-78
2021/04/26 18:07:04;;;;;;;4.50;4.10;;;15.50;38.80;;;;;;10559826;28;20219;-78
2021/04/26 18:12:07;;;;;;;4.20;3.87;;;15.40;39.70;;;;;;10559960;28;20245;-78
2021/04/26 18:17:10;;;;;;;5.23;4.73;;;15.30;39.50;;;;;;10565151;28;20310;-78
2021/04/26 18:22:13;;;;;;;5.10;4.30;;;15.10;39.40;;;;;;10554602;28;20300;-78
2021/04/26 18:27:15;;;;;;;3.80;3.60;;;15.00;40.10;;;;;;10567024;28;20336;-78
2021/04/26 18:32:17;;;;;;;4.60;4.30;;;14.90;40.30;;;;;;10575635;28;20628;-77
2021/04/26 18:37:20;;;;;;;4.00;3.70;;;14.80;40.60;;;;;;10552072;28;20231;-78
2021/04/26 18:42:21;;;;;;;6.40;4.57;;;14.80;41.20;;;;;;10579738;28;20223;-77
2021/04/26 18:47:23;;;;;;;3.83;3.53;;;14.70;40.60;;;;;;10549546;28;20593;-77
2021/04/26 18:52:27;;;;;;;3.60;3.40;;;14.60;42.30;;;;;;10560417;28;20249;-77
2021/04/26 18:57:28;;;;;;;4.43;4.00;;;14.50;42.40;;;;;;10555845;28;20300;-78
2021/04/26 19:02:30;;;;;;;4.53;4.13;;;14.40;41.90;;;;;;10566817;28;20245;-78
2021/04/26 19:07:32;;;;;;;4.10;3.80;;;14.30;43.20;;;;;;10538967;28;20230;-77
2021/04/26 19:12:36;;;;;;;4.80;4.50;;;14.30;42.40;;;;;;10574331;28;20200;-78
2021/04/26 19:17:38;;;;;;;5.23;4.83;;;14.20;43.60;;;;;;10569742;28;20215;-77
2021/04/26 19:22:42;;;;;;;7.13;6.00;;;14.10;43.60;;;;;;10557120;28;20251;-77
2021/04/26 19:27:45;;;;;;;4.60;4.20;;;14.00;43.20;;;;;;10571671;28;20292;-78
2021/04/26 19:32:48;;;;;;;6.60;6.00;;;13.90;43.50;;;;;;10573092;28;20187;-78
2021/04/26 19:37:50;;;;;;;4.87;4.37;;;13.80;43.30;;;;;;10561970;28;20587;-77
2021/04/26 19:42:52;;;;;;;5.80;5.20;;;13.70;43.30;;;;;;10564065;28;20226;-77
2021/04/26 19:47:54;;;;;;;6.30;4.63;;;13.50;43.60;;;;;;10585027;28;20231;-77
2021/04/26 19:52:58;;;;;;;7.30;4.50;;;13.30;44.60;;;;;;10584250;28;20227;-78
2021/04/26 19:58:00;;;;;;;3.93;3.50;;;13.20;44.10;;;;;;10579306;28;20654;-77
2021/04/26 20:03:01;;;;;;;7.03;4.10;;;13.10;43.80;;;;;;10562029;28;20231;-77
2021/04/26 20:08:06;;;;;;;5.87;5.23;;;13.00;43.20;;;;;;10561784;28;20227;-76
2021/04/26 20:13:10;;;;;;;4.77;4.30;;;12.90;43.50;;;;;;10580009;28;20223;-77
2021/04/26 20:18:12;;;;;;;5.30;4.80;;;12.80;44.20;;;;;;10554635;28;20207;-77
2021/04/26 20:23:15;;;;;;;4.50;4.00;;;12.80;44.20;;;;;;10547518;28;20563;-77
2021/04/26 20:28:17;;;;;;;4.90;4.10;;;12.60;44.10;;;;;;10526819;28;20211;-77
2021/04/26 20:33:20;;;;;;;4.23;3.93;;;12.50;44.20;;;;;;10531786;28;20219;-77
2021/04/26 20:38:23;;;;;;;4.17;3.87;;;12.40;44.40;;;;;;10545060;28;20294;-77
2021/04/26 20:43:25;;;;;;;5.80;4.23;;;12.30;44.70;;;;;;10561011;28;20246;-77
2021/04/26 20:48:26;;;;;;;4.30;4.00;;;12.10;45.10;;;;;;10573908;28;20286;-77
2021/04/26 20:53:29;;;;;;;4.53;3.57;;;12.00;44.30;;;;;;10575641;28;20223;-77
2021/04/26 20:58:31;;;;;;;3.73;3.43;;;11.90;44.70;;;;;;10573490;28;20231;-78
2021/04/26 21:03:32;;;;;;;5.30;4.23;;;11.90;44.80;;;;;;10574414;28;20617;-77
2021/04/26 21:08:35;;;;;;;4.40;4.00;;;11.80;44.90;;;;;;10575530;28;20207;-77
2021/04/26 21:13:37;;;;;;;4.63;4.20;;;11.60;45.10;;;;;;10574619;28;20266;-77
2021/04/26 21:18:42;;;;;;;5.93;3.70;;;11.50;45.30;;;;;;10553379;28;20211;-77
2021/04/26 21:23:44;;;;;;;3.20;3.00;;;11.40;45.10;;;;;;10555798;28;20239;-77
2021/04/26 21:28:46;;;;;;;3.80;3.50;;;11.30;45.50;;;;;;10566486;28;20215;-77
2021/04/26 21:33:48;;;;;;;4.10;3.70;;;11.20;45.70;;;;;;10575887;22;20511;-78
2021/04/26 21:38:50;;;;;;;3.43;3.13;;;11.10;45.50;;;;;;10479751;28;20577;-80
2021/04/26 21:43:52;;;;;;;3.03;2.80;;;11.00;45.60;;;;;;10473166;28;20271;-79
2021/04/26 21:48:53;;;;;;;3.40;3.10;;;11.00;45.80;;;;;;10480596;28;20342;-79
2021/04/26 21:53:56;;;;;;;3.30;3.10;;;10.90;45.70;;;;;;10474420;28;20719;-79
2021/04/26 21:58:58;;;;;;;3.57;3.27;;;10.80;45.90;;;;;;10487871;28;20211;-79
2021/04/26 22:03:59;;;;;;;3.50;3.30;;;10.70;45.60;;;;;;10483880;28;20291;-80
2021/04/26 22:09:03;;;;;;;3.73;3.27;;;10.60;45.80;;;;;;10477715;28;20630;-78
2021/04/26 22:14:05;;;;;;;4.10;3.80;;;10.50;45.80;;;;;;10503947;28;20217;-79
2021/04/26 22:19:06;;;;;;;4.73;3.60;;;10.40;46.10;;;;;;10502273;28;20200;-79
2021/04/26 22:24:11;;;;;;;3.50;3.20;;;10.30;46.10;;;;;;10479081;28;20259;-79
2021/04/26 22:29:13;;;;;;;4.00;3.60;;;10.20;46.20;;;;;;10501232;28;20204;-79
2021/04/26 22:34:15;;;;;;;3.70;3.27;;;10.10;46.20;;;;;;10509580;28;20318;-79
2021/04/26 22:39:17;;;;;;;4.30;3.90;;;10.10;46.00;;;;;;10515070;28;20203;-79
2021/04/26 22:44:19;;;;;;;10.50;3.53;;;10.10;44.90;;;;;;10517308;28;20227;-77
2021/04/26 22:49:20;;;;;;;3.70;3.00;;;10.20;44.90;;;;;;10520032;28;20283;-77
2021/04/26 22:54:23;;;;;;;5.43;3.50;;;10.30;42.50;;;;;;10536679;28;20730;-78
2021/04/26 22:59:24;;;;;;;3.20;3.00;;;10.40;43.60;;;;;;10525771;28;20204;-77
2021/04/26 23:04:26;;;;;;;3.10;2.90;;;10.40;43.30;;;;;;10549213;28;20226;-79
2021/04/26 23:09:29;;;;;;;3.40;3.10;;;10.40;42.90;;;;;;10526258;28;20211;-79
2021/04/26 23:14:30;;;;;;;3.40;3.13;;;10.40;42.60;;;;;;10527464;28;20220;-79
2021/04/26 23:19:32;;;;;;;3.10;2.80;;;10.50;42.60;;;;;;10523780;28;20203;-79
2021/04/26 23:24:34;;;;;;;3.40;3.10;;;10.50;42.50;;;;;;10509068;28;20231;-79
2021/04/26 23:29:36;;;;;;;3.30;3.10;;;10.50;42.50;;;;;;10548274;28;20212;-79
2021/04/26 23:34:38;;;;;;;3.70;3.07;;;10.50;42.30;;;;;;10509387;28;20733;-79
2021/04/26 23:39:40;;;;;;;3.07;2.80;;;10.40;42.00;;;;;;10541530;28;20641;-79
2021/04/26 23:44:42;;;;;;;3.50;3.20;;;10.40;42.20;;;;;;10527252;28;20330;-80
2021/04/26 23:49:43;;;;;;;3.57;3.27;;;10.30;42.70;;;;;;10545307;28;20227;-80
2021/04/26 23:54:46;;;;;;;3.40;3.20;;;10.30;42.60;;;;;;10546266;28;20222;-80
2021/04/26 23:59:48;;;;;;;3.00;2.80;;;10.20;42.20;;;;;;10530051;28;20199;-79
